Time;durP1;ratioP1;P1;durP2;ratioP2;P2;SDS_P1;SDS_P2;PMS_P1;PMS_P2;Temp;Humidity;BMP_temperature;BMP_pressure;BME280_temperature;BME280_humidity;BME280_pressure;Samples;Min_cycle;Max_cycle;Signal;HPM_P1;HPM_P2
2022/08/08 00:00:01;;;;;;;;;3.67;3.67;;;;;20.41;96.76;101768.78;5030317;28;45599;-78
2022/08/08 00:02:45;;;;;;;;;4.00;4.00;;;;;20.36;97.55;101768.69;5031428;28;45455;-77
2022/08/08 00:05:47;;;;;;;;;3.00;3.00;;;;;20.35;98.18;101770.63;5021924;28;45469;-78
2022/08/08 00:08:24;;;;;;;;;5.33;2.67;;;;;20.16;98.98;101747.69;5012822;28;45958;-78
2022/08/08 00:11:01;;;;;;;;;2.00;2.00;;;;;20.29;99.38;101775.25;5030511;28;45461;-79
2022/08/08 00:13:33;;;;;;;;;3.00;3.00;;;;;20.10;99.83;101748.69;5016638;28;46260;-79
2022/08/08 00:16:10;;;;;;;;;3.67;2.33;;;;;20.21;100.00;101769.22;5034744;28;45721;-80
2022/08/08 00:18:56;;;;;;;;;3.00;3.00;;;;;20.23;100.00;101775.41;5022480;28;45881;-78
2022/08/08 00:21:32;;;;;;;;;1.67;1.00;;;;;20.24;100.00;101774.28;5025537;28;45427;-78
2022/08/08 00:24:03;;;;;;;;;4.00;3.00;;;;;20.22;100.00;101770.94;5030145;28;46485;-78
2022/08/08 00:26:34;;;;;;;;;4.00;3.00;;;;;20.16;100.00;101763.56;5025866;28;45691;-78
2022/08/08 00:29:13;;;;;;;;;4.00;4.00;;;;;20.00;100.00;101742.91;5023952;28;45816;-77
2022/08/08 00:31:44;;;;;;;;;3.33;2.67;;;;;19.97;100.00;101741.50;5013925;28;45675;-78
2022/08/08 00:37:16;;;;;;;;;2.00;2.00;;;;;20.03;100.00;101745.19;5017466;28;45769;-81
2022/08/08 00:40:05;;;;;;;;;3.33;3.33;;;;;19.95;100.00;101753.97;5016698;28;45420;-81
2022/08/08 00:42:58;;;;;;;;;2.67;2.67;;;;;20.00;100.00;101762.41;5015490;28;45853;-81
2022/08/08 00:45:43;;;;;;;;;4.33;2.33;;;;;19.97;100.00;101768.47;5013838;28;46845;-78
2022/08/08 00:48:35;;;;;;;;;2.33;2.33;;;;;19.76;100.00;101737.41;5004552;28;45404;-78
2022/08/08 00:51:39;;;;;;;;;3.67;3.67;;;;;19.78;100.00;101738.03;5000880;28;45957;-77
2022/08/08 00:54:26;;;;;;;;;4.33;3.00;;;;;19.88;100.00;101757.75;5014998;28;46534;-78
2022/08/08 00:57:15;;;;;;;;;6.00;4.00;;;;;19.86;100.00;101750.72;5015577;28;45751;-78
2022/08/08 00:59:50;;;;;;;;;3.00;3.00;;;;;19.84;100.00;101753.75;5015069;28;45760;-79
2022/08/08 01:02:37;;;;;;;;;4.00;4.00;;;;;19.81;100.00;101754.25;5015988;28;45788;-82
2022/08/08 01:05:28;;;;;;;;;4.33;2.00;;;;;19.79;100.00;101744.44;5016469;28;46493;-81
2022/08/08 01:08:18;;;;;;;;;4.33;3.33;;;;;19.77;100.00;101747.44;5016339;28;47583;-81
2022/08/08 01:11:05;;;;;;;;;4.00;4.00;;;;;19.70;100.00;101747.59;5017140;28;45344;-86
2022/08/08 01:14:21;;;;;;;;;3.33;3.33;;;;;19.57;100.00;101722.81;5018632;28;45771;-82
2022/08/08 01:17:18;;;;;;;;;6.00;4.00;;;;;19.65;100.00;101744.69;5009558;28;45657;-81
2022/08/08 01:20:14;;;;;;;;;8.00;5.00;;;;;19.63;100.00;101744.09;5018155;28;45459;-83
2022/08/08 01:23:21;;;;;;;;;5.33;5.00;;;;;19.61;100.00;101742.63;5018054;28;45851;-83
2022/08/08 01:26:20;;;;;;;;;4.67;4.67;;;;;19.37;100.00;101700.94;5028401;28;45464;-78
2022/08/08 01:29:17;;;;;;;;;5.00;4.00;;;;;19.55;100.00;101739.75;5014675;28;45653;-77
2022/08/08 01:32:02;;;;;;;;;3.00;3.00;;;;;19.52;100.00;101745.81;5014560;28;46592;-80
2022/08/08 01:34:46;;;;;;;;;4.67;4.00;;;;;19.51;100.00;101727.41;5002436;28;46167;-78
2022/08/08 01:37:47;;;;;;;;;5.00;3.67;;;;;19.40;100.00;101725.50;5013656;28;45856;-78
2022/08/08 01:40:36;;;;;;;;;4.67;4.67;;;;;19.42;100.00;101731.69;5013820;28;45621;-76
2022/08/08 01:43:29;;;;;;;;;3.67;3.67;;;;;19.35;100.00;101733.72;5014307;28;46455;-77
2022/08/08 01:46:04;;;;;;;;;5.00;3.33;;;;;19.23;100.00;101717.06;5006301;28;45714;-77
2022/08/08 01:48:37;;;;;;;;;7.67;7.67;;;;;19.35;100.00;101744.84;5030227;28;45773;-78
2022/08/08 01:51:30;;;;;;;;;4.33;3.00;;;;;19.34;100.00;101745.94;5032946;28;45675;-78
2022/08/08 01:54:18;;;;;;;;;5.00;5.00;;;;;19.25;100.00;101737.13;5012157;28;45610;-77
2022/08/08 01:57:16;;;;;;;;;5.67;5.00;;;;;19.24;100.00;101732.66;5047890;28;45489;-79
2022/08/08 02:00:34;;;;;;;;;7.00;4.33;;;;;19.22;100.00;101738.47;5019376;28;45895;-78
2022/08/08 02:03:17;;;;;;;;;6.00;4.00;;;;;19.27;100.00;101745.25;4967269;28;45531;-79
2022/08/08 02:06:06;;;;;;;;;7.00;5.33;;;;;19.23;100.00;101745.69;5007716;28;45731;-77
2022/08/08 02:09:04;;;;;;;;;4.00;4.00;;;;;19.16;100.00;101736.66;5012165;28;45807;-78
2022/08/08 02:11:33;;;;;;;;;5.00;3.67;;;;;19.20;100.00;101748.97;5016685;28;45553;-78
2022/08/08 02:14:31;;;;;;;;;3.00;3.00;;;;;19.20;100.00;101748.13;5028705;28;46172;-79
2022/08/08 02:17:33;;;;;;;;;4.00;4.00;;;;;18.96;100.00;101705.59;5028874;28;47276;-79
2022/08/08 02:20:10;;;;;;;;;5.00;3.67;;;;;18.98;100.00;101720.09;4958017;28;45993;-78
2022/08/08 02:22:56;;;;;;;;;5.00;5.00;;;;;19.18;100.00;101747.53;5027239;28;45599;-79
2022/08/08 02:25:25;;;;;;;;;6.33;5.00;;;;;19.14;100.00;101744.38;5025779;28;45517;-80
2022/08/08 02:28:15;;;;;;;;;5.33;4.00;;;;;19.10;100.00;101737.63;5027280;28;46382;-82
2022/08/08 02:30:52;;;;;;;;;6.67;5.00;;;;;19.04;100.00;101738.56;5030497;28;45497;-81
2022/08/08 02:33:34;;;;;;;;;4.33;4.00;;;;;19.02;100.00;101741.59;5034493;28;45919;-81
2022/08/08 02:36:19;;;;;;;;;4.33;4.00;;;;;18.98;100.00;101734.84;5050356;28;46361;-81
2022/08/08 02:39:03;;;;;;;;;6.33;4.67;;;;;18.98;100.00;101745.97;5019413;28;47620;-82
2022/08/08 02:42:06;;;;;;;;;4.67;4.33;;;;;18.94;100.00;101749.47;5007571;28;45905;-79
2022/08/08 02:45:07;;;;;;;;;7.33;7.33;;;;;18.87;100.00;101736.50;5017273;28;45744;-79
2022/08/08 02:48:03;;;;;;;;;5.00;5.00;;;;;18.93;100.00;101745.00;5024033;28;45883;-79
2022/08/08 02:50:57;;;;;;;;;7.33;5.00;;;;;18.87;100.00;101736.50;5030061;28;47051;-78
2022/08/08 02:53:58;;;;;;;;;5.00;3.67;;;;;18.86;100.00;101736.75;5045608;28;45776;-79
2022/08/08 02:56:55;;;;;;;;;5.67;5.00;;;;;18.84;100.00;101734.19;5043812;28;45584;-78
2022/08/08 02:59:24;;;;;;;;;6.67;4.67;;;;;18.87;100.00;101738.44;5023747;28;45552;-78
2022/08/08 03:02:51;;;;;;;;;5.00;4.00;;;;;18.90;100.00;101745.47;5006265;28;46509;-79
2022/08/08 03:05:46;;;;;;;;;6.33;4.00;;;;;18.82;100.00;101739.16;5016835;28;45702;-80
2022/08/08 03:08:31;;;;;;;;;2.00;2.00;;;;;18.74;100.00;101713.63;5027383;28;45653;-78
2022/08/08 03:11:18;;;;;;;;;6.00;3.67;;;;;18.82;100.00;101741.94;5026721;28;45790;-78
2022/08/08 03:13:49;;;;;;;;;3.67;3.00;;;;;18.84;100.00;101745.28;5031677;28;45759;-80
2022/08/08 03:16:20;;;;;;;;;9.67;5.67;;;;;18.82;100.00;101747.47;5036340;28;45544;-77
2022/08/08 03:19:07;;;;;;;;;5.67;4.33;;;;;18.72;100.00;101736.09;5040107;28;45450;-80
2022/08/08 03:21:32;;;;;;;;;5.67;4.67;;;;;18.85;100.00;101752.59;5011502;28;45869;-79
2022/08/08 03:23:58;;;;;;;;;5.00;5.00;;;;;18.86;100.00;101756.22;5029818;28;46813;-78
2022/08/08 03:26:31;;;;;;;;;5.00;5.00;;;;;18.63;100.00;101716.16;5031636;28;45493;-77
2022/08/08 03:29:06;;;;;;;;;8.00;5.33;;;;;18.78;100.00;101751.81;5029527;28;45498;-78
2022/08/08 03:34:16;;;;;;;;;5.33;4.33;;;;;18.83;100.00;101760.31;5008572;28;45826;-79
2022/08/08 03:36:45;;;;;;;;;11.67;5.33;;;;;18.67;100.00;101745.16;5027537;28;45702;-78
2022/08/08 03:39:15;;;;;;;;;10.67;5.67;;;;;18.75;100.00;101746.75;5013437;28;45846;-80
2022/08/08 03:41:44;;;;;;;;;6.67;4.33;;;;;18.83;100.00;101751.97;5012590;28;45652;-78
2022/08/08 03:44:10;;;;;;;;;3.00;1.00;;;;;18.82;100.00;101753.03;5012092;28;45506;-78
2022/08/08 03:46:46;;;;;;;;;10.33;6.67;;;;;18.58;100.00;101723.50;5010429;28;45640;-78
2022/08/08 03:49:25;;;;;;;;;6.67;4.67;;;;;18.77;100.00;101760.41;5013712;28;45489;-77
2022/08/08 03:51:55;;;;;;;;;4.33;3.33;;;;;18.74;100.00;101750.59;5012224;28;45752;-81
2022/08/08 03:54:21;;;;;;;;;7.33;7.33;;;;;18.74;100.00;101766.44;5011232;28;48258;-78
2022/08/08 03:56:47;;;;;;;;;4.67;4.67;;;;;18.68;100.00;101771.00;5010732;28;45704;-78
2022/08/08 03:59:13;;;;;;;;;7.33;5.67;;;;;18.62;100.00;101775.59;5012345;28;45661;-78
2022/08/08 04:01:40;;;;;;;;;6.33;4.33;;;;;18.63;100.00;101777.28;5012287;28;45448;-77
2022/08/08 04:04:06;;;;;;;;;6.00;4.67;;;;;18.62;100.00;101767.28;5012353;28;48150;-82
2022/08/08 04:06:32;;;;;;;;;6.67;6.67;;;;;18.64;100.00;101776.19;5014098;28;45423;-83
2022/08/08 04:08:59;;;;;;;;;5.00;4.33;;;;;18.57;100.00;101766.28;5016091;28;45488;-83
2022/08/08 04:11:25;;;;;;;;;7.00;5.67;;;;;18.53;100.00;101768.66;5014043;28;45496;-78
2022/08/08 04:13:53;;;;;;;;;9.00;5.33;;;;;18.60;100.00;101780.53;5010723;28;46197;-81
2022/08/08 04:16:19;;;;;;;;;10.00;5.67;;;;;18.60;100.00;101785.25;5014503;28;45837;-80
2022/08/08 04:18:47;;;;;;;;;5.33;5.33;;;;;18.52;100.00;101780.88;5011864;28;45322;-77
2022/08/08 04:21:13;;;;;;;;;6.33;5.00;;;;;18.53;100.00;101783.44;5013136;28;45555;-78
2022/08/08 04:23:38;;;;;;;;;12.33;9.00;;;;;18.27;100.00;101751.31;5012754;28;45934;-78
2022/08/08 04:26:05;;;;;;;;;9.33;8.33;;;;;18.34;100.00;101762.34;5013409;28;45988;-78
2022/08/08 04:28:31;;;;;;;;;7.50;5.00;;;;;18.54;100.00;101787.03;5012615;28;45387;-76
2022/08/08 04:30:56;;;;;;;;;8.00;8.00;;;;;18.46;100.00;101773.50;5010454;28;45390;-77
2022/08/08 04:33:22;;;;;;;;;7.00;6.67;;;;;18.52;100.00;101784.50;5012136;28;45801;-78
2022/08/08 04:35:50;;;;;;;;;7.00;5.67;;;;;18.56;100.00;101793.19;5010418;28;45723;-78
2022/08/08 04:38:16;;;;;;;;;8.67;6.67;;;;;18.33;100.00;101760.66;5012169;28;45459;-77
2022/08/08 04:40:43;;;;;;;;;11.00;9.33;;;;;18.57;100.00;101789.34;5025656;28;46437;-83
2022/08/08 04:43:08;;;;;;;;;7.33;6.67;;;;;18.67;100.00;101788.78;5028036;28;46622;-82
2022/08/08 04:45:34;;;;;;;;;9.00;7.00;;;;;18.38;100.00;101721.06;5036450;28;45523;-82
2022/08/08 04:48:00;;;;;;;;;9.67;8.00;;;;;18.89;100.00;101780.75;5049280;28;45407;-84
2022/08/08 04:50:26;;;;;;;;;7.33;6.33;;;;;19.14;100.00;101782.47;5033850;28;46024;-83
2022/08/08 04:52:52;;;;;;;;;7.33;6.33;;;;;19.32;100.00;101757.31;5017508;28;47183;-83
2022/08/08 04:55:19;;;;;;;;;9.00;8.33;;;;;19.67;100.00;101750.00;5019129;28;45344;-82
2022/08/08 04:57:45;;;;;;;;;7.33;7.33;;;;;20.28;100.00;101792.22;5020574;28;45756;-82
2022/08/08 05:00:12;;;;;;;;;5.33;5.33;;;;;20.39;100.00;101748.66;5016514;28;45875;-78
2022/08/08 05:02:38;;;;;;;;;6.67;6.67;;;;;20.87;100.00;101755.69;5015697;28;47432;-79
2022/08/08 05:05:04;;;;;;;;;6.33;5.33;;;;;21.53;100.00;101802.50;5016067;28;45724;-77
2022/08/08 05:07:30;;;;;;;;;6.00;5.00;;;;;21.85;100.00;101779.47;5015813;28;45669;-77
2022/08/08 05:09:59;;;;;;;;;6.00;5.00;;;;;22.47;100.00;101803.44;5013929;28;45684;-80
2022/08/08 05:12:24;;;;;;;;;7.67;6.00;;;;;22.91;100.00;101782.84;5014566;28;47096;-78
2022/08/08 05:14:50;;;;;;;;;7.67;6.33;;;;;23.26;100.00;101761.88;5013574;28;45725;-79
2022/08/08 05:17:16;;;;;;;;;4.67;4.67;;;;;23.96;96.69;101795.31;5015642;28;45700;-83
2022/08/08 05:19:42;;;;;;;;;6.00;5.33;;;;;24.41;91.84;101790.16;5016634;28;45696;-77
2022/08/08 05:22:09;;;;;;;;;7.67;5.67;;;;;25.09;85.42;101808.75;5016277;28;45841;-77
2022/08/08 05:24:36;;;;;;;;;5.33;4.67;;;;;25.56;79.93;101804.78;5018829;28;45500;-82
2022/08/08 05:27:01;;;;;;;;;8.33;6.33;;;;;25.97;74.52;101789.75;5019123;28;45726;-81
2022/08/08 05:29:27;;;;;;;;;8.67;5.00;;;;;26.64;70.29;101815.56;5018563;28;45308;-82
2022/08/08 05:31:52;;;;;;;;;7.33;6.33;;;;;26.98;66.00;101780.13;5017698;28;46989;-84
2022/08/08 05:34:28;;;;;;;;;7.33;5.67;;;;;27.75;63.21;101810.38;5027440;28;45430;-78
2022/08/08 05:36:55;;;;;;;;;7.00;7.00;;;;;28.22;58.89;101808.69;5015936;28;45892;-82
2022/08/08 05:39:22;;;;;;;;;6.00;6.00;;;;;28.46;56.29;101788.88;5029695;28;45408;-83
2022/08/08 05:41:57;;;;;;;;;8.67;7.00;;;;;29.27;52.95;101826.56;5035497;28;45792;-83
2022/08/08 05:44:29;;;;;;;;;7.00;6.00;;;;;29.61;50.46;101814.91;5013847;28;45489;-83
2022/08/08 05:46:57;;;;;;;;;6.00;5.00;;;;;29.79;49.11;101803.81;5017306;28;45405;-78
2022/08/08 05:49:23;;;;;;;;;7.67;7.33;;;;;30.31;46.74;101797.94;5017484;28;45732;-83
2022/08/08 05:51:49;;;;;;;;;8.00;7.00;;;;;30.85;44.33;101801.75;5019394;28;46769;-82
2022/08/08 05:54:16;;;;;;;;;7.67;7.00;;;;;31.27;43.07;101818.56;5019096;28;45752;-83
2022/08/08 05:56:43;;;;;;;;;7.00;6.33;;;;;31.27;42.20;101776.06;5016655;28;45751;-83
2022/08/08 05:59:16;;;;;;;;;7.33;6.33;;;;;31.80;41.20;101814.03;5018624;28;45327;-83
2022/08/08 06:01:42;;;;;;;;;8.33;7.00;;;;;32.21;39.96;101827.00;5030433;28;47167;-84
2022/08/08 06:04:13;;;;;;;;;5.00;5.00;;;;;32.60;38.93;101818.72;5021944;28;45443;-82
2022/08/08 06:06:41;;;;;;;;;5.33;5.33;;;;;32.97;37.82;101828.59;5025593;28;45535;-83
2022/08/08 06:09:09;;;;;;;;;9.00;7.33;;;;;33.08;37.46;101783.59;5014792;28;45825;-83
2022/08/08 06:11:35;;;;;;;;;7.00;6.00;;;;;33.50;36.40;101802.91;5015181;28;45698;-77
2022/08/08 06:14:06;;;;;;;;;8.25;7.00;;;;;33.90;35.51;101809.09;5015416;28;45686;-78
2022/08/08 06:16:35;;;;;;;;;4.75;4.00;;;;;34.25;35.11;101819.44;5013398;28;45452;-78
2022/08/08 06:19:04;;;;;;;;;7.50;6.00;;;;;34.59;33.84;101806.97;5015899;28;45763;-78
2022/08/08 06:21:30;;;;;;;;;6.25;6.25;;;;;35.13;33.18;101836.69;5015790;28;45854;-84
2022/08/08 06:23:56;;;;;;;;;5.25;5.25;;;;;35.42;31.75;101803.50;5021269;28;45454;-83
2022/08/08 06:26:24;;;;;;;;;11.00;6.25;;;;;35.86;31.08;101841.75;5015076;28;45743;-83
2022/08/08 06:28:57;;;;;;;;;7.75;7.75;;;;;36.11;30.98;101801.78;5019119;28;45958;-83
2022/08/08 06:31:27;;;;;;;;;6.50;5.00;;;;;36.59;28.91;101807.75;5016980;28;47429;-83
2022/08/08 06:34:05;;;;;;;;;5.25;5.25;;;;;36.54;28.71;101811.66;5016175;28;46040;-84
2022/08/08 06:36:42;;;;;;;;;9.25;8.00;;;;;36.93;29.11;101828.34;5023944;28;45658;-83
2022/08/08 06:39:10;;;;;;;;;7.00;5.67;;;;;37.47;28.49;101854.78;5013730;28;45485;-83
2022/08/08 06:42:01;;;;;;;;;7.75;6.25;;;;;37.79;28.01;101856.50;5020931;28;45402;-83
2022/08/08 06:44:27;;;;;;;;;6.50;5.00;;;;;37.97;27.49;101850.41;5013133;28;45710;-82
2022/08/08 06:46:54;;;;;;;;;8.00;6.00;;;;;37.96;26.89;101811.50;5021012;28;45376;-84
2022/08/08 06:49:21;;;;;;;;;6.00;5.00;;;;;38.42;26.54;101816.69;5016443;28;45894;-82
2022/08/08 06:51:46;;;;;;;;;5.75;5.00;;;;;38.81;26.06;101826.13;5020718;28;46039;-82
2022/08/08 06:54:13;;;;;;;;;5.00;5.00;;;;;39.31;24.94;101849.28;5034018;28;45793;-83
2022/08/08 06:56:39;;;;;;;;;6.25;6.25;;;;;39.82;24.31;101832.97;5014535;28;45781;-84
2022/08/08 06:59:05;;;;;;;;;4.25;4.25;;;;;40.00;24.11;101827.53;5020292;28;45500;-82
2022/08/08 07:01:40;;;;;;;;;8.00;6.00;;;;;40.28;24.20;101837.81;5030585;28;47261;-78
2022/08/08 07:04:18;;;;;;;;;6.25;4.75;;;;;40.42;23.76;101858.97;5014240;28;45677;-77
2022/08/08 07:06:55;;;;;;;;;9.00;8.00;;;;;40.44;23.41;101838.50;5015207;28;45479;-82
2022/08/08 07:09:27;;;;;;;;;5.50;5.50;;;;;40.54;22.72;101845.59;5014842;28;45864;-82
2022/08/08 07:11:57;;;;;;;;;4.75;4.75;;;;;40.61;23.01;101862.13;5024593;28;45460;-83
2022/08/08 07:14:37;;;;;;;;;4.67;4.00;;;;;40.43;23.31;101833.91;5022455;28;45615;-82
2022/08/08 07:17:22;;;;;;;;;5.50;4.25;;;;;40.72;23.09;101868.81;5036501;28;45779;-82
2022/08/08 07:19:56;;;;;;;;;6.25;5.25;;;;;40.63;22.63;101871.19;5035675;28;45383;-82
2022/08/08 07:22:52;;;;;;;;;6.25;6.25;;;;;40.38;23.01;101849.47;5037349;28;45672;-82
2022/08/08 07:25:20;;;;;;;;;8.33;7.00;;;;;40.53;22.64;101849.69;5030640;28;45418;-84
2022/08/08 07:27:53;;;;;;;;;4.50;4.50;;;;;40.76;22.64;101861.91;5018239;28;45375;-85
2022/08/08 07:30:19;;;;;;;;;4.50;4.50;;;;;40.88;22.31;101834.13;5004632;28;45931;-79
2022/08/08 07:32:46;;;;;;;;;9.00;7.00;;;;;41.03;21.84;101829.38;5020600;28;47111;-84
2022/08/08 07:35:14;;;;;;;;;5.00;4.25;;;;;41.24;21.96;101872.78;5018782;28;45476;-82
2022/08/08 07:37:45;;;;;;;;;6.00;6.00;;;;;41.41;21.48;101865.59;5014433;28;45636;-84
2022/08/08 07:40:12;;;;;;;;;7.00;7.00;;;;;41.49;21.42;101872.25;5019413;28;45800;-85
2022/08/08 07:42:40;;;;;;;;;8.00;7.00;;;;;41.32;21.25;101884.41;5028834;28;46866;-84
2022/08/08 07:45:09;;;;;;;;;5.75;5.25;;;;;41.10;21.77;101878.38;5017879;28;45453;-83
2022/08/08 07:47:35;;;;;;;;;5.00;5.00;;;;;41.23;22.04;101882.66;5027793;28;45636;-83
2022/08/08 07:50:00;;;;;;;;;5.75;5.25;;;;;41.06;21.59;101868.88;5013649;28;45809;-80
2022/08/08 07:52:29;;;;;;;;;6.75;4.00;;;;;40.96;21.84;101866.69;5015276;28;45782;-78
2022/08/08 07:55:12;;;;;;;;;5.33;5.33;;;;;41.51;21.97;101878.44;5022202;28;45492;-84
2022/08/08 07:58:13;;;;;;;;;8.00;5.00;;;;;42.10;21.15;101884.31;5026622;28;45849;-85
2022/08/08 08:00:46;;;;;;;;;6.67;6.00;;;;;42.58;20.93;101888.34;4940541;28;47121;-83
2022/08/08 08:03:18;;;;;;;;;7.67;6.67;;;;;42.55;20.46;101878.47;5010776;28;47049;-82
2022/08/08 08:05:46;;;;;;;;;7.33;7.33;;;;;42.40;20.37;101882.47;5033521;28;45760;-78
2022/08/08 08:08:17;;;;;;;;;6.00;4.00;;;;;42.29;20.41;101886.09;5040677;28;45337;-78
2022/08/08 08:10:49;;;;;;;;;4.67;4.33;;;;;41.94;21.06;101892.44;5033894;28;45748;-84
2022/08/08 08:13:26;;;;;;;;;5.00;5.00;;;;;41.76;20.56;101870.06;5034721;28;46664;-82
2022/08/08 08:16:00;;;;;;;;;6.00;6.00;;;;;41.73;20.90;101870.00;5012266;28;45834;-78
2022/08/08 08:18:36;;;;;;;;;4.33;4.33;;;;;41.78;20.62;101861.00;4976048;28;45705;-78
2022/08/08 08:21:03;;;;;;;;;8.33;5.67;;;;;42.03;20.90;101869.03;4972686;28;45575;-79
2022/08/08 08:23:29;;;;;;;;;7.50;6.00;;;;;42.29;20.54;101870.88;4973794;28;45524;-79
2022/08/08 08:25:54;;;;;;;;;6.00;5.00;;;;;42.47;19.74;101885.41;4976581;28;45457;-82
2022/08/08 08:28:21;;;;;;;;;6.33;5.33;;;;;42.38;20.17;101884.94;4992129;28;45408;-80
2022/08/08 08:30:47;;;;;;;;;4.50;4.25;;;;;42.28;20.32;101898.03;4975789;28;45647;-79
2022/08/08 08:33:13;;;;;;;;;6.33;5.67;;;;;42.38;19.71;101884.94;4975455;28;46851;-79
2022/08/08 08:35:38;;;;;;;;;4.00;4.00;;;;;42.47;20.02;101879.63;4990790;28;45655;-78
2022/08/08 08:38:04;;;;;;;;;5.00;5.00;;;;;42.69;19.47;101869.06;4990680;28;45784;-85
2022/08/08 08:40:30;;;;;;;;;8.75;5.75;;;;;42.42;19.55;101871.38;4983635;28;45434;-83
2022/08/08 08:42:57;;;;;;;;;6.00;5.00;;;;;42.06;20.00;101859.59;4982666;28;46480;-83
2022/08/08 08:45:23;;;;;;;;;5.33;5.33;;;;;42.15;20.16;101877.34;4988314;28;45570;-84
2022/08/08 08:47:53;;;;;;;;;6.33;6.33;;;;;42.13;20.30;101866.22;4977536;28;45522;-84
2022/08/08 08:50:19;;;;;;;;;7.33;5.00;;;;;42.43;19.56;101879.63;4991926;28;45804;-83
2022/08/08 08:52:45;;;;;;;;;6.67;4.00;;;;;42.01;19.55;101851.28;4987134;28;46793;-84
2022/08/08 08:55:17;;;;;;;;;3.67;3.33;;;;;41.78;20.01;101884.06;4998214;28;45443;-85
2022/08/08 08:57:43;;;;;;;;;5.00;5.00;;;;;41.17;20.25;101832.41;4980612;28;45369;-84
2022/08/08 09:00:10;;;;;;;;;9.67;6.67;;;;;40.86;19.95;101848.88;4990064;28;45846;-79
2022/08/08 09:02:38;;;;;;;;;6.67;5.00;;;;;40.76;20.19;101869.72;5009504;28;45431;-82
2022/08/08 09:05:09;;;;;;;;;5.00;5.00;;;;;40.60;20.60;101867.03;4990857;28;45875;-78
2022/08/08 09:07:36;;;;;;;;;5.67;5.00;;;;;40.62;20.72;101881.00;4991966;28;45463;-80
2022/08/08 09:10:03;;;;;;;;;8.00;5.67;;;;;40.67;20.47;101874.94;4995070;28;45414;-80
2022/08/08 09:12:33;;;;;;;;;4.67;4.67;;;;;40.63;20.74;101886.38;4998222;28;45496;-82
2022/08/08 09:14:59;;;;;;;;;5.00;5.00;;;;;40.56;20.51;101886.31;4985158;28;45368;-83
2022/08/08 09:17:25;;;;;;;;;5.00;3.33;;;;;40.37;20.70;101878.59;5003815;28;45332;-83
2022/08/08 09:20:01;;;;;;;;;4.67;4.67;;;;;40.39;21.23;101877.00;5019297;28;45671;-82
2022/08/08 09:22:27;;;;;;;;;3.00;3.00;;;;;40.90;20.96;101875.69;5016422;28;46755;-78
2022/08/08 09:24:54;;;;;;;;;5.00;5.00;;;;;40.83;20.52;101875.56;5021604;28;45462;-79
2022/08/08 09:27:20;;;;;;;;;7.50;6.25;;;;;40.69;20.87;101869.63;5020341;28;45741;-80
2022/08/08 09:29:52;;;;;;;;;3.50;3.00;;;;;40.67;20.49;101869.19;5012890;28;46085;-81
2022/08/08 09:32:41;;;;;;;;;5.67;4.33;;;;;40.42;21.08;101849.50;5013389;28;47718;-83
2022/08/08 09:35:15;;;;;;;;;4.00;4.00;;;;;40.63;20.70;101859.69;5021768;28;45637;-82
2022/08/08 09:37:56;;;;;;;;;5.00;4.00;;;;;40.43;20.42;101846.22;5018551;28;45869;-82
2022/08/08 09:40:24;;;;;;;;;4.67;4.67;;;;;40.48;20.40;101816.34;5016953;28;45410;-81
2022/08/08 09:42:58;;;;;;;;;4.33;4.33;;;;;40.84;20.29;101838.97;5026921;28;45837;-79
2022/08/08 09:45:30;;;;;;;;;5.00;4.33;;;;;40.78;19.86;101850.00;5021339;28;45813;-80
2022/08/08 09:48:00;;;;;;;;;5.67;4.67;;;;;40.50;20.10;101842.69;5033016;28;45738;-79
2022/08/08 09:50:29;;;;;;;;;6.67;6.33;;;;;40.74;20.35;101852.03;5033924;28;45945;-78
2022/08/08 09:52:57;;;;;;;;;6.00;5.00;;;;;40.58;19.86;101866.59;5032557;28;45777;-79
2022/08/08 09:55:29;;;;;;;;;5.00;5.00;;;;;40.33;20.15;101841.16;5049365;28;45760;-80
2022/08/08 09:58:21;;;;;;;;;4.75;4.75;;;;;40.79;20.36;101845.09;5037696;28;45370;-79
2022/08/08 10:00:48;;;;;;;;;6.00;3.33;;;;;41.31;19.83;101857.66;5042857;28;46125;-83
2022/08/08 10:03:17;;;;;;;;;4.33;4.33;;;;;41.51;19.31;101852.50;5025244;28;48031;-83
2022/08/08 10:05:44;;;;;;;;;5.33;5.00;;;;;41.67;18.99;101854.31;5020439;28;45583;-82
2022/08/08 10:08:10;;;;;;;;;4.00;4.00;;;;;41.42;19.11;101854.88;5026562;28;45404;-83
2022/08/08 10:10:38;;;;;;;;;4.33;4.00;;;;;41.32;19.22;101849.84;5032094;28;45581;-83
2022/08/08 10:13:19;;;;;;;;;5.33;4.00;;;;;41.23;19.86;101841.50;5023321;28;46124;-82
2022/08/08 10:15:48;;;;;;;;;4.33;2.00;;;;;41.23;19.22;101822.19;5031753;28;45491;-84
2022/08/08 10:18:25;;;;;;;;;3.33;3.33;;;;;41.36;19.51;101810.41;5023768;28;45573;-79
2022/08/08 10:20:53;;;;;;;;;4.00;4.00;;;;;41.83;18.48;101834.72;5018374;28;45886;-79
2022/08/08 10:23:38;;;;;;;;;10.67;9.67;;;;;41.52;18.88;101842.66;5012555;28;48193;-78
2022/08/08 10:26:04;;;;;;;;;5.33;4.00;;;;;41.16;18.89;101810.59;5003734;28;45493;-84
2022/08/08 10:28:36;;;;;;;;;6.00;6.00;;;;;41.09;18.87;101808.47;5014660;28;45661;-82
2022/08/08 10:32:30;;;;;;;;;4.00;4.00;;;;;41.22;18.70;101842.75;5030731;28;45920;-77
2022/08/08 10:33:52;;;;;;;;;4.00;4.00;;;;;41.01;19.20;101831.84;5011774;28;45854;-78
2022/08/08 10:36:23;;;;;;;;;3.67;2.33;;;;;40.81;18.72;101825.38;5013359;28;45665;-78
2022/08/08 10:38:51;;;;;;;;;5.33;3.67;;;;;40.80;18.82;101832.34;4999214;28;45815;-79
2022/08/08 10:41:20;;;;;;;;;6.33;5.67;;;;;40.74;18.98;101812.56;5012423;28;46072;-80
2022/08/08 10:43:50;;;;;;;;;4.50;4.00;;;;;41.02;18.74;101831.44;5013563;28;45407;-78
2022/08/08 10:46:25;;;;;;;;;4.50;4.00;;;;;40.78;19.17;101801.09;5011259;28;45517;-80
2022/08/08 10:48:55;;;;;;;;;4.00;4.00;;;;;40.92;18.65;101817.75;5011006;28;45792;-79
2022/08/08 10:51:22;;;;;;;;;6.00;6.00;;;;;40.49;19.10;101814.31;5013858;28;45510;-80
2022/08/08 10:53:51;;;;;;;;;3.00;3.00;;;;;40.48;19.05;101829.91;5011197;28;47079;-79
2022/08/08 10:56:17;;;;;;;;;3.00;3.00;;;;;40.57;18.52;101799.66;5012934;28;45550;-84
2022/08/08 10:58:43;;;;;;;;;4.33;3.67;;;;;40.72;18.55;101785.41;5015487;28;45380;-83
2022/08/08 11:01:10;;;;;;;;;4.75;3.00;;;;;40.55;18.53;101779.06;5017581;28;46541;-82
2022/08/08 11:03:47;;;;;;;;;3.50;3.50;;;;;40.23;18.86;101772.88;5018196;28;45669;-84
2022/08/08 11:06:18;;;;;;;;;1.75;1.75;;;;;40.35;19.21;101786.19;5011379;28;45543;-84
2022/08/08 11:08:44;;;;;;;;;4.00;4.00;;;;;40.35;18.79;101786.19;5010640;28;45416;-84
2022/08/08 11:11:11;;;;;;;;;4.00;4.00;;;;;40.08;18.94;101803.47;5017592;28;45882;-82
2022/08/08 11:13:42;;;;;;;;;3.25;3.25;;;;;39.60;19.35;101805.94;5032217;28;48047;-82
2022/08/08 11:16:11;;;;;;;;;4.50;3.50;;;;;39.23;19.50;101809.38;5004953;28;45313;-80
2022/08/08 11:18:38;;;;;;;;;5.00;4.00;;;;;38.75;19.67;101778.91;5028133;28;45521;-79
2022/08/08 11:21:05;;;;;;;;;3.25;3.25;;;;;38.56;19.89;101819.03;5012848;28;45723;-80
2022/08/08 11:23:34;;;;;;;;;3.33;3.33;;;;;37.88;19.91;101779.00;5025158;28;45478;-80
2022/08/08 11:26:04;;;;;;;;;6.67;5.00;;;;;37.45;21.29;101817.97;5010989;28;45432;-80
2022/08/08 11:28:34;;;;;;;;;4.00;4.00;;;;;36.51;21.21;101800.16;5017636;28;45431;-83
2022/08/08 11:31:01;;;;;;;;;5.33;4.67;;;;;35.88;22.28;101799.38;5010793;28;46700;-79
2022/08/08 11:33:29;;;;;;;;;4.00;4.00;;;;;35.13;23.13;101811.84;5023734;28;48183;-85
2022/08/08 11:35:55;;;;;;;;;6.67;5.00;;;;;34.69;23.61;101810.56;5032188;28;45558;-79
2022/08/08 11:38:24;;;;;;;;;3.00;3.00;;;;;34.10;24.19;101792.41;5031849;28;45510;-78
2022/08/08 11:40:54;;;;;;;;;6.33;5.67;;;;;33.47;24.38;101801.56;5007525;28;45538;-85
2022/08/08 11:43:29;;;;;;;;;6.00;4.50;;;;;32.70;23.84;101772.97;5031003;28;46720;-84
2022/08/08 11:45:55;;;;;;;;;5.25;4.00;;;;;32.34;24.75;101796.81;5029888;28;45834;-82
2022/08/08 11:48:22;;;;;;;;;5.67;5.33;;;;;31.82;25.95;101797.50;5019714;28;45583;-83
2022/08/08 11:50:49;;;;;;;;;2.25;1.00;;;;;31.29;26.65;101779.41;5018746;28;45479;-84
2022/08/08 11:53:15;;;;;;;;;4.00;4.00;;;;;30.86;26.64;101808.28;5030445;28;47219;-78
2022/08/08 11:55:49;;;;;;;;;3.00;3.00;;;;;30.45;27.02;101791.13;5028960;28;45484;-80
2022/08/08 11:58:17;;;;;;;;;4.25;4.25;;;;;29.93;27.06;101776.41;5031296;28;45364;-79